createdAt,value
2023-09-08T00:01:25.870Z,11.50
2023-09-08T00:03:53.652Z,9.75
2023-09-08T00:06:21.335Z,12.80
2023-09-08T00:08:48.949Z,10.00
2023-09-08T00:11:16.526Z,12.75
2023-09-08T00:13:44.126Z,16.25
2023-09-08T00:16:12.464Z,9.75
2023-09-08T00:18:40.133Z,9.25
2023-09-08T00:21:07.760Z,12.75
2023-09-08T00:23:35.339Z,9.00
2023-09-08T00:26:03.014Z,7.00
2023-09-08T00:28:30.625Z,13.50
2023-09-08T00:30:58.823Z,11.50
2023-09-08T00:33:26.445Z,10.50
2023-09-08T00:35:54.603Z,9.00
2023-09-08T00:38:22.181Z,12.00
2023-09-08T00:40:50.247Z,16.75
2023-09-08T00:43:17.923Z,14.00
2023-09-08T00:45:45.570Z,9.25
2023-09-08T00:48:13.354Z,11.50
2023-09-08T00:50:41.254Z,14.00
2023-09-08T00:53:08.874Z,18.25
2023-09-08T00:55:37.553Z,8.00
2023-09-08T00:58:05.097Z,10.50
2023-09-08T01:00:33.124Z,10.00
2023-09-08T01:03:01.329Z,11.50
2023-09-08T01:05:29.110Z,15.00
2023-09-08T01:07:57.477Z,9.00
2023-09-08T01:10:25.086Z,16.00
2023-09-08T01:12:52.811Z,12.00
2023-09-08T01:15:20.553Z,14.50
2023-09-08T01:17:48.464Z,14.00
2023-09-08T01:20:16.642Z,14.50
2023-09-08T01:22:44.243Z,16.00
2023-09-08T01:25:12.264Z,17.00
2023-09-08T01:27:39.996Z,15.00
2023-09-08T01:30:07.574Z,12.00
2023-09-08T01:32:35.146Z,13.50
2023-09-08T01:35:02.701Z,16.75
2023-09-08T01:37:30.281Z,13.00
2023-09-08T01:39:57.832Z,15.00
2023-09-08T01:42:25.415Z,14.00
2023-09-08T01:44:52.981Z,17.33
2023-09-08T01:47:20.512Z,10.50
2023-09-08T01:49:48.053Z,12.00
2023-09-08T01:52:15.582Z,13.00
2023-09-08T01:54:43.144Z,12.75
2023-09-08T01:57:10.886Z,14.50
2023-09-08T01:59:39.091Z,15.00
2023-09-08T02:02:06.656Z,17.25
2023-09-08T02:04:34.607Z,14.50
2023-09-08T02:07:02.863Z,15.25
2023-09-08T02:09:30.615Z,13.50
2023-09-08T02:11:58.202Z,10.00
2023-09-08T02:14:25.852Z,13.25
2023-09-08T02:16:53.406Z,14.00
2023-09-08T02:19:21.059Z,12.75
2023-09-08T02:21:48.631Z,14.33
2023-09-08T02:24:16.143Z,12.50
2023-09-08T02:26:43.771Z,13.00
2023-09-08T02:29:12.265Z,15.00
2023-09-08T02:31:39.785Z,10.00
2023-09-08T02:34:07.341Z,12.00
2023-09-08T02:36:34.904Z,12.75
2023-09-08T02:39:02.445Z,10.25
2023-09-08T02:41:29.991Z,11.00
2023-09-08T02:43:57.617Z,12.75
2023-09-08T02:46:25.857Z,12.50
2023-09-08T02:48:53.941Z,10.00
2023-09-08T02:51:21.942Z,11.50
2023-09-08T02:53:49.503Z,10.00
2023-09-08T02:56:17.086Z,10.50
2023-09-08T02:58:45.453Z,12.25
2023-09-08T03:01:14.661Z,15.50
2023-09-08T03:03:42.430Z,17.50
2023-09-08T03:06:10.031Z,15.25
2023-09-08T03:08:38.195Z,12.00
2023-09-08T03:11:05.852Z,13.00
2023-09-08T03:13:35.228Z,16.00
2023-09-08T03:16:02.858Z,12.75
2023-09-08T03:18:30.551Z,16.00
2023-09-08T03:20:58.113Z,13.50
2023-09-08T03:23:25.680Z,17.50
2023-09-08T03:25:53.260Z,10.50
2023-09-08T03:28:20.812Z,11.50
2023-09-08T03:30:48.358Z,9.00
2023-09-08T03:33:16.152Z,17.25
2023-09-08T03:35:45.615Z,8.00
2023-09-08T03:38:13.162Z,9.75
2023-09-08T03:40:40.720Z,15.25
2023-09-08T03:43:08.249Z,14.75
2023-09-08T03:45:35.940Z,13.50
2023-09-08T03:48:03.559Z,13.50
2023-09-08T03:50:31.104Z,18.25
2023-09-08T03:52:58.670Z,15.25
2023-09-08T03:55:26.268Z,15.50
2023-09-08T03:57:54.655Z,6.00
2023-09-08T04:00:23.654Z,12.50
2023-09-08T04:02:51.407Z,9.50
2023-09-08T04:05:19.116Z,9.00
2023-09-08T04:07:46.842Z,12.75
2023-09-08T04:10:14.806Z,12.25
2023-09-08T04:12:42.435Z,12.25
2023-09-08T04:15:10.110Z,14.00
2023-09-08T04:17:38.470Z,12.50
2023-09-08T04:20:06.980Z,12.50
2023-09-08T04:22:34.555Z,11.00
2023-09-08T04:25:02.142Z,13.00
2023-09-08T04:27:29.702Z,10.00
2023-09-08T04:29:57.315Z,9.50
2023-09-08T04:32:24.922Z,12.50
2023-09-08T04:34:52.511Z,12.00
2023-09-08T04:37:20.098Z,12.00
2023-09-08T04:39:47.660Z,12.00
2023-09-08T04:42:15.598Z,9.75
2023-09-08T04:44:43.138Z,9.50
2023-09-08T04:47:10.780Z,12.50
2023-09-08T04:49:39.582Z,11.50
2023-09-08T04:52:07.103Z,13.50
2023-09-08T04:54:34.736Z,10.50
2023-09-08T04:57:16.037Z,8.00
2023-09-08T04:59:48.447Z,13.00
2023-09-08T05:02:16.637Z,12.25
2023-09-08T05:04:44.300Z,16.00
2023-09-08T05:07:13.735Z,13.00
2023-09-08T05:09:41.341Z,11.50
2023-09-08T05:12:08.972Z,17.50
2023-09-08T05:14:36.666Z,15.75
2023-09-08T05:17:04.284Z,15.50
2023-09-08T05:19:31.798Z,18.00
2023-09-08T05:21:59.410Z,11.50
2023-09-08T05:24:28.331Z,12.75
2023-09-08T05:26:56.125Z,10.50
2023-09-08T05:29:23.814Z,11.50
2023-09-08T05:31:51.379Z,13.50
2023-09-08T05:34:19.011Z,12.25
2023-09-08T05:36:46.764Z,13.00
2023-09-08T05:39:14.821Z,14.50
2023-09-08T05:41:42.386Z,11.00
2023-09-08T05:44:10.079Z,15.50
2023-09-08T05:46:37.827Z,13.00
2023-09-08T05:49:05.551Z,15.25
2023-09-08T05:51:33.225Z,13.75
2023-09-08T05:54:00.821Z,13.25
2023-09-08T05:56:28.416Z,12.00
2023-09-08T05:58:56.012Z,11.00
2023-09-08T06:01:23.956Z,17.00
2023-09-08T06:03:51.775Z,16.00
2023-09-08T06:06:19.956Z,16.00
2023-09-08T06:08:47.508Z,16.75
2023-09-08T06:11:15.164Z,12.00
2023-09-08T06:13:43.629Z,16.00
2023-09-08T06:16:11.400Z,16.00
2023-09-08T06:18:41.538Z,11.00
2023-09-08T06:21:09.474Z,13.00
2023-09-08T06:23:38.096Z,11.00
2023-09-08T06:26:06.354Z,15.00
2023-09-08T06:28:34.677Z,21.00
2023-09-08T06:31:02.743Z,16.75
2023-09-08T06:33:30.579Z,15.00
2023-09-08T06:35:58.464Z,21.50
2023-09-08T06:38:26.846Z,18.25
2023-09-08T06:40:55.155Z,19.00
2023-09-08T06:43:22.869Z,15.75
2023-09-08T06:45:51.209Z,12.00
2023-09-08T06:48:18.912Z,16.00
2023-09-08T06:50:47.187Z,7.25
2023-09-08T06:53:15.049Z,19.50
2023-09-08T06:55:45.567Z,17.50
2023-09-08T06:58:16.095Z,18.60
2023-09-08T07:00:43.875Z,16.00
2023-09-08T07:03:11.905Z,15.60
2023-09-08T07:05:39.801Z,15.00
2023-09-08T07:08:07.835Z,14.60
2023-09-08T07:10:35.589Z,19.00
2023-09-08T07:13:03.723Z,17.40
2023-09-08T07:15:32.226Z,15.60
2023-09-08T07:18:00.050Z,14.80
2023-09-08T07:20:27.800Z,16.80
2023-09-08T07:22:55.916Z,14.20
2023-09-08T07:25:23.599Z,19.00
2023-09-08T07:27:54.004Z,19.60
2023-09-08T07:30:21.625Z,19.60
2023-09-08T07:32:49.371Z,17.40
2023-09-08T07:35:18.330Z,18.40
2023-09-08T07:37:46.102Z,17.00
2023-09-08T07:40:14.195Z,18.40
2023-09-08T07:42:42.086Z,19.40
2023-09-08T07:45:10.974Z,16.80
2023-09-08T07:47:39.687Z,14.40
2023-09-08T07:50:07.667Z,13.60
2023-09-08T07:52:35.751Z,14.00
2023-09-08T07:55:04.819Z,14.00
2023-09-08T07:57:32.988Z,14.80
2023-09-08T08:00:00.630Z,16.00
2023-09-08T08:02:28.390Z,11.80
2023-09-08T08:04:56.232Z,15.60
2023-09-08T08:07:23.974Z,5.00
2023-09-08T08:09:51.657Z,10.80
2023-09-08T08:12:19.590Z,11.60
2023-09-08T08:14:47.349Z,12.00
2023-09-08T08:17:15.167Z,11.80
2023-09-08T08:19:42.928Z,10.20
2023-09-08T08:22:10.790Z,9.40
2023-09-08T08:24:38.754Z,12.20
2023-09-08T08:27:06.500Z,10.00
2023-09-08T08:29:34.475Z,12.00
2023-09-08T08:32:02.164Z,12.00
2023-09-08T08:34:29.868Z,9.00
2023-09-08T08:36:57.553Z,10.00
2023-09-08T08:39:25.258Z,11.20
2023-09-08T08:41:53.542Z,11.60
2023-09-08T08:44:21.248Z,10.40
2023-09-08T08:46:49.054Z,10.00
2023-09-08T08:49:16.938Z,7.00
2023-09-08T08:51:44.751Z,12.40
2023-09-08T08:54:12.433Z,12.20
2023-09-08T08:56:40.295Z,12.80
2023-09-08T08:59:08.024Z,11.40
2023-09-08T09:01:35.671Z,12.00
2023-09-08T09:04:03.793Z,11.40
2023-09-08T09:06:31.585Z,11.40
2023-09-08T09:08:59.711Z,11.20
2023-09-08T09:11:27.417Z,11.80
2023-09-08T09:13:55.191Z,10.20
2023-09-08T09:16:22.887Z,12.40
2023-09-08T09:18:51.337Z,11.80
2023-09-08T09:21:19.015Z,12.00
2023-09-08T09:23:46.730Z,11.00
2023-09-08T09:26:15.264Z,3.80
2023-09-08T09:28:43.136Z,9.80
2023-09-08T09:31:12.463Z,11.60
2023-09-08T09:33:40.459Z,10.60
2023-09-08T09:36:08.555Z,9.60
2023-09-08T09:38:36.720Z,8.60
2023-09-08T09:41:04.814Z,11.00
2023-09-08T09:43:32.669Z,10.00
2023-09-08T09:46:00.358Z,8.60
2023-09-08T09:48:28.358Z,9.60
2023-09-08T09:50:56.019Z,9.00
2023-09-08T09:53:23.717Z,11.20
2023-09-08T09:55:52.092Z,13.20
2023-09-08T09:58:19.847Z,11.00
2023-09-08T10:00:49.659Z,11.00
2023-09-08T10:03:17.876Z,10.00
2023-09-08T10:05:48.168Z,11.00
2023-09-08T10:08:15.913Z,10.00
2023-09-08T10:10:47.331Z,9.00
2023-09-08T10:13:15.193Z,11.80
2023-09-08T10:15:42.921Z,8.20
2023-09-08T10:18:10.860Z,10.00
2023-09-08T10:20:38.878Z,9.80
2023-09-08T10:26:15.482Z,10.00
2023-09-08T10:28:43.195Z,10.00
2023-09-08T10:31:12.824Z,10.80
2023-09-08T10:33:42.229Z,8.80
2023-09-08T10:36:10.031Z,12.40
2023-09-08T10:38:38.111Z,9.40
2023-09-08T10:41:06.180Z,9.00
2023-09-08T10:43:35.604Z,11.60
2023-09-08T10:46:03.904Z,11.40
2023-09-08T10:48:31.898Z,10.60
2023-09-08T10:51:00.276Z,12.00
2023-09-08T10:53:28.075Z,10.00
2023-09-08T10:58:28.205Z,9.40
2023-09-08T11:01:00.574Z,9.00
2023-09-08T11:03:29.022Z,10.00
2023-09-08T11:05:57.559Z,10.20
2023-09-08T11:08:27.214Z,10.00
2023-09-08T11:10:56.674Z,10.80
2023-09-08T11:13:24.300Z,9.60
2023-09-08T11:15:52.128Z,8.60
2023-09-08T11:18:21.005Z,10.00
2023-09-08T11:20:48.859Z,6.80
2023-09-08T11:23:16.733Z,8.60
2023-09-08T11:25:44.463Z,9.60
2023-09-08T11:28:12.169Z,10.00
2023-09-08T11:30:40.010Z,9.40
2023-09-08T11:33:08.906Z,9.40
2023-09-08T11:35:36.751Z,6.80
2023-09-08T11:38:06.087Z,9.00
2023-09-08T11:40:34.030Z,8.80
2023-09-08T11:43:02.472Z,11.20
2023-09-08T11:45:30.632Z,7.00
2023-09-08T11:47:58.356Z,8.60
2023-09-08T11:50:26.235Z,4.80
2023-09-08T11:52:53.925Z,8.60
2023-09-08T11:55:23.846Z,8.00
2023-09-08T11:57:52.418Z,6.00
2023-09-08T12:00:21.093Z,8.00
2023-09-08T12:02:49.020Z,9.00
2023-09-08T12:05:17.023Z,8.80
2023-09-08T12:07:44.774Z,6.80
2023-09-08T12:10:13.240Z,7.60
2023-09-08T12:12:42.010Z,7.00
2023-09-08T12:15:09.801Z,8.60
2023-09-08T12:17:37.681Z,10.20
2023-09-08T12:20:05.628Z,7.40
2023-09-08T12:22:33.667Z,7.60
2023-09-08T12:25:03.259Z,8.00
2023-09-08T12:27:33.115Z,7.00
2023-09-08T12:30:01.669Z,6.40
2023-09-08T12:32:29.540Z,7.40
2023-09-08T12:34:57.282Z,6.00
2023-09-08T12:37:26.520Z,9.80
2023-09-08T12:39:54.776Z,7.40
2023-09-08T12:42:22.491Z,7.00
2023-09-08T12:44:51.305Z,6.60
2023-09-08T12:47:19.272Z,8.00
2023-09-08T12:49:47.182Z,7.40
2023-09-08T12:52:15.398Z,6.60
2023-09-08T12:54:43.104Z,8.00
2023-09-08T12:57:15.420Z,8.80
2023-09-08T12:59:43.408Z,9.00
2023-09-08T13:02:15.107Z,8.00
2023-09-08T13:04:42.951Z,9.00
2023-09-08T13:07:11.024Z,8.00
2023-09-08T13:09:39.068Z,6.80
2023-09-08T13:12:06.939Z,7.20
2023-09-08T13:14:34.820Z,9.00
2023-09-08T13:17:02.668Z,9.60
2023-09-08T13:19:30.681Z,9.40
2023-09-08T13:21:58.566Z,9.40
2023-09-08T13:24:26.800Z,7.60
2023-09-08T13:26:54.604Z,9.00
2023-09-08T13:29:22.566Z,9.40
2023-09-08T13:31:50.501Z,7.60
2023-09-08T13:34:18.782Z,10.40
2023-09-08T13:36:47.010Z,9.20
2023-09-08T13:39:14.925Z,7.60
2023-09-08T13:41:42.740Z,6.40
2023-09-08T13:44:10.573Z,10.20
2023-09-08T13:46:38.473Z,10.80
2023-09-08T13:49:07.266Z,9.40
2023-09-08T13:51:35.731Z,9.00
2023-09-08T13:54:08.037Z,10.60
2023-09-08T13:56:36.498Z,9.80
2023-09-08T13:59:05.095Z,10.00
2023-09-08T14:01:34.941Z,11.00
2023-09-08T14:04:04.235Z,10.00
2023-09-08T14:06:41.113Z,10.00
2023-09-08T14:14:29.290Z,10.80
2023-09-08T14:16:59.098Z,9.60
2023-09-08T14:19:26.914Z,8.20
2023-09-08T14:21:54.834Z,9.00
2023-09-08T14:24:22.777Z,10.40
2023-09-08T14:26:52.348Z,7.40
2023-09-08T14:29:20.293Z,6.60
2023-09-08T14:31:48.145Z,9.80
2023-09-08T14:34:16.214Z,10.00
2023-09-08T14:36:45.572Z,11.20
2023-09-08T14:39:16.296Z,6.20
2023-09-08T14:41:43.999Z,10.00
2023-09-08T14:44:11.904Z,10.40
2023-09-08T14:46:39.862Z,9.00
2023-09-08T14:49:07.666Z,8.80
2023-09-08T14:51:35.565Z,9.00
2023-09-08T14:54:03.321Z,7.80
2023-09-08T14:56:31.166Z,9.40
2023-09-08T14:58:59.104Z,8.80
2023-09-08T15:01:26.865Z,9.20
2023-09-08T15:03:56.361Z,8.60
2023-09-08T15:06:25.994Z,8.80
2023-09-08T15:08:56.035Z,1.00
2023-09-08T15:11:24.177Z,10.00
2023-09-08T15:13:52.117Z,11.40
2023-09-08T15:16:19.992Z,6.40
2023-09-08T15:18:47.809Z,8.60
2023-09-08T15:21:16.474Z,8.60
2023-09-08T15:23:45.460Z,9.00
2023-09-08T15:26:13.333Z,6.40
2023-09-08T15:28:41.270Z,8.00
2023-09-08T15:31:09.267Z,7.00
2023-09-08T15:33:39.177Z,8.00
2023-09-08T15:36:07.627Z,9.60
2023-09-08T15:38:35.473Z,10.00
2023-09-08T15:41:03.339Z,7.20
2023-09-08T15:43:31.145Z,7.60
2023-09-08T15:45:59.733Z,9.20
2023-09-08T15:48:27.527Z,9.00
2023-09-08T15:50:55.471Z,8.00
2023-09-08T15:53:23.336Z,9.20
2023-09-08T15:55:51.480Z,8.20
2023-09-08T15:58:20.278Z,7.80
2023-09-08T16:00:48.198Z,9.60
2023-09-08T16:03:16.101Z,8.40
2023-09-08T16:05:45.107Z,8.60
2023-09-08T16:08:12.912Z,9.20
2023-09-08T16:10:40.788Z,9.60
2023-09-08T16:13:08.881Z,9.20
2023-09-08T16:15:36.812Z,9.00
2023-09-08T16:20:34.244Z,8.80
2023-09-08T16:23:02.113Z,9.20
2023-09-08T16:25:30.531Z,9.40
2023-09-08T16:27:58.340Z,6.60
2023-09-08T16:30:26.196Z,8.40
2023-09-08T16:32:54.141Z,7.00
2023-09-08T16:35:22.043Z,9.00
2023-09-08T16:37:49.817Z,10.60
2023-09-08T16:40:18.059Z,7.00
2023-09-08T16:42:46.178Z,8.60
2023-09-08T16:45:15.526Z,9.40
2023-09-08T16:47:44.207Z,8.20
2023-09-08T16:50:12.024Z,9.00
2023-09-08T16:52:39.916Z,11.20
2023-09-08T16:55:12.765Z,6.00
2023-09-08T16:57:40.894Z,5.80
2023-09-08T17:00:10.500Z,9.60
2023-09-08T17:02:38.716Z,7.60
2023-09-08T17:05:06.688Z,9.20
2023-09-08T17:07:35.312Z,8.80
2023-09-08T17:10:04.928Z,10.00
2023-09-08T17:12:33.043Z,7.00
2023-09-08T17:15:01.006Z,9.20
2023-09-08T17:17:28.910Z,7.40
2023-09-08T17:19:57.727Z,7.60
2023-09-08T17:22:25.876Z,8.60
2023-09-08T17:24:54.763Z,9.20
2023-09-08T17:27:22.603Z,8.80
2023-09-08T17:29:50.266Z,8.80
2023-09-08T17:32:18.462Z,7.60
2023-09-08T17:34:47.716Z,9.20
2023-09-08T17:37:17.760Z,8.20
2023-09-08T17:39:45.853Z,8.00
2023-09-08T17:42:13.723Z,10.00
2023-09-08T17:44:43.025Z,9.80
2023-09-08T17:47:13.771Z,11.20
2023-09-08T17:49:41.776Z,9.00
2023-09-08T17:52:09.677Z,12.80
2023-09-08T17:54:37.660Z,9.60
2023-09-08T17:57:05.582Z,11.20
2023-09-08T17:59:33.370Z,11.40
2023-09-08T18:02:01.809Z,11.80
2023-09-08T18:04:29.929Z,10.00
2023-09-08T18:06:58.284Z,8.40
2023-09-08T18:09:26.317Z,10.60
2023-09-08T18:11:54.271Z,9.20
2023-09-08T18:14:22.200Z,10.00
2023-09-08T18:16:51.290Z,10.60
2023-09-08T18:19:19.140Z,21.40
2023-09-08T18:21:46.968Z,13.80
2023-09-08T18:24:14.852Z,12.80
2023-09-08T18:26:43.145Z,10.80
2023-09-08T18:29:11.411Z,11.00
2023-09-08T18:31:39.352Z,5.40
2023-09-08T18:34:07.343Z,8.40
2023-09-08T18:36:35.075Z,11.20
2023-09-08T18:39:03.008Z,8.80
2023-09-08T18:41:30.886Z,7.80
2023-09-08T18:43:58.732Z,13.20
2023-09-08T18:46:26.725Z,10.00
2023-09-08T18:48:54.608Z,9.60
2023-09-08T18:51:23.061Z,12.00
2023-09-08T18:53:50.975Z,11.60
2023-09-08T18:56:19.416Z,10.80
2023-09-08T18:58:47.502Z,13.00
2023-09-08T19:01:15.365Z,12.60
2023-09-08T19:03:43.227Z,10.40
2023-09-08T19:06:11.406Z,12.00
2023-09-08T19:08:40.391Z,10.40
2023-09-08T19:11:08.221Z,12.80
2023-09-08T19:13:36.644Z,13.80
2023-09-08T19:16:04.932Z,16.20
2023-09-08T19:18:32.817Z,12.60
2023-09-08T19:21:00.763Z,22.80
2023-09-08T19:23:29.256Z,20.80
2023-09-08T19:25:56.983Z,22.60
2023-09-08T19:28:24.929Z,29.60
2023-09-08T19:30:53.076Z,30.60
2023-09-08T19:33:21.102Z,24.60
2023-09-08T19:35:49.307Z,20.00
2023-09-08T19:38:18.926Z,14.20
2023-09-08T19:40:46.808Z,30.20
2023-09-08T19:43:14.608Z,19.60
2023-09-08T19:45:42.603Z,18.40
2023-09-08T19:48:10.697Z,37.40
2023-09-08T19:50:38.779Z,41.60
2023-09-08T19:53:06.959Z,69.25
2023-09-08T19:55:35.276Z,56.00
2023-09-08T19:58:03.628Z,28.80
2023-09-08T20:00:31.540Z,19.80
2023-09-08T20:02:59.447Z,17.00
2023-09-08T20:05:28.295Z,13.00
2023-09-08T20:07:56.291Z,12.80
2023-09-08T20:10:24.191Z,14.00
2023-09-08T20:12:51.991Z,13.80
2023-09-08T20:15:19.869Z,15.00
2023-09-08T20:17:48.662Z,13.00
2023-09-08T20:20:16.700Z,15.80
2023-09-08T20:22:44.620Z,17.40
2023-09-08T20:25:15.016Z,14.80
2023-09-08T20:27:42.902Z,14.20
2023-09-08T20:30:10.820Z,13.60
2023-09-08T20:32:38.804Z,15.60
2023-09-08T20:35:06.638Z,17.20
2023-09-08T20:37:34.630Z,20.40
2023-09-08T20:40:02.350Z,16.00
2023-09-08T20:42:30.520Z,18.80
2023-09-08T20:44:58.480Z,15.00
2023-09-08T20:47:26.298Z,14.60
2023-09-08T20:49:54.107Z,15.00
2023-09-08T20:52:22.029Z,15.00
2023-09-08T20:54:50.396Z,14.40
2023-09-08T20:57:20.008Z,15.20
2023-09-08T20:59:47.753Z,16.20
2023-09-08T21:02:16.826Z,16.20
2023-09-08T21:04:45.351Z,17.80
2023-09-08T21:07:13.312Z,16.60
2023-09-08T21:09:41.108Z,15.00
2023-09-08T21:12:08.903Z,17.60
2023-09-08T21:14:36.781Z,14.80
2023-09-08T21:17:05.633Z,14.40
2023-09-08T21:19:34.040Z,15.40
2023-09-08T21:22:02.006Z,17.00
2023-09-08T21:24:29.747Z,17.80
2023-09-08T21:27:00.621Z,17.00
2023-09-08T21:29:28.748Z,9.60
2023-09-08T21:31:57.719Z,14.80
2023-09-08T21:34:26.179Z,18.60
2023-09-08T21:36:54.235Z,13.20
2023-09-08T21:39:21.937Z,16.20
2023-09-08T21:41:49.923Z,20.40
2023-09-08T21:44:17.766Z,21.00
2023-09-08T21:46:45.518Z,18.40
2023-09-08T21:49:13.389Z,18.20
2023-09-08T21:51:41.194Z,18.80
2023-09-08T21:54:09.126Z,13.20
2023-09-08T21:56:37.312Z,13.40
2023-09-08T21:59:05.080Z,18.20
2023-09-08T22:01:32.907Z,12.00
2023-09-08T22:04:01.034Z,26.00
2023-09-08T22:06:28.885Z,28.20
2023-09-08T22:08:57.109Z,23.80
2023-09-08T22:11:25.312Z,29.00
2023-09-08T22:13:53.176Z,29.80
2023-09-08T22:16:21.164Z,36.40
2023-09-08T22:18:49.632Z,36.00
2023-09-08T22:21:17.567Z,37.75
2023-09-08T22:23:45.240Z,52.50
2023-09-08T22:26:12.858Z,42.25
2023-09-08T22:28:41.293Z,41.50
2023-09-08T22:31:09.060Z,37.40
2023-09-08T22:33:37.556Z,29.80
2023-09-08T22:36:05.855Z,37.75
2023-09-08T22:38:34.172Z,34.40
2023-09-08T22:41:02.700Z,30.40
2023-09-08T22:43:30.395Z,28.40
2023-09-08T22:45:58.171Z,34.00
2023-09-08T22:48:25.966Z,26.40
2023-09-08T22:50:53.698Z,22.60
2023-09-08T22:53:21.434Z,27.40
2023-09-08T22:55:49.537Z,23.80
2023-09-08T22:58:17.475Z,19.60
2023-09-08T23:00:45.225Z,25.00
2023-09-08T23:03:12.970Z,22.60
2023-09-08T23:05:40.759Z,26.00
2023-09-08T23:08:08.450Z,22.60
2023-09-08T23:10:36.237Z,21.80
2023-09-08T23:13:04.129Z,24.20
2023-09-08T23:15:33.446Z,23.40
2023-09-08T23:18:01.150Z,20.60
2023-09-08T23:20:28.827Z,20.20
2023-09-08T23:22:56.985Z,24.60
2023-09-08T23:25:24.661Z,25.00
2023-09-08T23:27:52.328Z,20.20
2023-09-08T23:30:19.982Z,21.00
2023-09-08T23:32:47.718Z,19.00
2023-09-08T23:35:15.676Z,23.00
2023-09-08T23:37:43.596Z,19.80
2023-09-08T23:40:12.991Z,21.40
2023-09-08T23:42:40.801Z,19.00
2023-09-08T23:45:08.471Z,19.60
2023-09-08T23:47:36.268Z,16.00
2023-09-08T23:50:04.571Z,16.80
2023-09-08T23:52:32.212Z,19.80
2023-09-08T23:54:59.822Z,22.60
2023-09-08T23:57:27.583Z,21.60
2023-09-08T23:59:55.288Z,27.60
